sensor_id;sensor_type;location;lat;lon;timestamp;temperature;humidity
3360;DHT22;1693;49.602;11.046;2023-01-24T00:01:16;2.70;99.90
3360;DHT22;1693;49.602;11.046;2023-01-24T00:03:44;2.70;99.90
3360;DHT22;1693;49.602;11.046;2023-01-24T00:06:14;2.70;99.90
3360;DHT22;1693;49.602;11.046;2023-01-24T00:08:42;2.70;99.90
3360;DHT22;1693;49.602;11.046;2023-01-24T00:11:10;2.60;99.90
3360;DHT22;1693;49.602;11.046;2023-01-24T00:13:38;2.60;99.90
3360;DHT22;1693;49.602;11.046;2023-01-24T00:16:07;2.60;99.90
3360;DHT22;1693;49.602;11.046;2023-01-24T00:18:35;2.60;99.90
3360;DHT22;1693;49.602;11.046;2023-01-24T00:21:08;2.70;99.90
3360;DHT22;1693;49.602;11.046;2023-01-24T00:23:39;2.80;99.90
3360;DHT22;1693;49.602;11.046;2023-01-24T00:26:07;2.70;99.90
3360;DHT22;1693;49.602;11.046;2023-01-24T00:28:34;2.70;99.90
3360;DHT22;1693;49.602;11.046;2023-01-24T00:31:02;2.80;99.90
3360;DHT22;1693;49.602;11.046;2023-01-24T00:33:31;2.70;99.90
3360;DHT22;1693;49.602;11.046;2023-01-24T00:36:03;2.70;99.90
3360;DHT22;1693;49.602;11.046;2023-01-24T00:38:31;2.70;99.90
3360;DHT22;1693;49.602;11.046;2023-01-24T00:41:00;2.60;99.90
3360;DHT22;1693;49.602;11.046;2023-01-24T00:43:28;2.60;99.90
3360;DHT22;1693;49.602;11.046;2023-01-24T00:45:56;2.70;99.90
3360;DHT22;1693;49.602;11.046;2023-01-24T00:48:23;2.70;99.90
3360;DHT22;1693;49.602;11.046;2023-01-24T00:50:50;2.70;99.90
3360;DHT22;1693;49.602;11.046;2023-01-24T00:53:18;2.80;99.90
3360;DHT22;1693;49.602;11.046;2023-01-24T00:55:46;2.80;99.90
3360;DHT22;1693;49.602;11.046;2023-01-24T00:58:17;2.70;99.90
3360;DHT22;1693;49.602;11.046;2023-01-24T01:00:45;2.80;99.90
3360;DHT22;1693;49.602;11.046;2023-01-24T01:03:13;2.70;99.90
3360;DHT22;1693;49.602;11.046;2023-01-24T01:05:41;2.80;99.90
3360;DHT22;1693;49.602;11.046;2023-01-24T01:08:09;2.70;99.90
3360;DHT22;1693;49.602;11.046;2023-01-24T01:10:37;2.70;99.90
3360;DHT22;1693;49.602;11.046;2023-01-24T01:13:04;2.70;99.90
3360;DHT22;1693;49.602;11.046;2023-01-24T01:15:33;2.70;99.90
3360;DHT22;1693;49.602;11.046;2023-01-24T01:18:00;2.60;99.90
3360;DHT22;1693;49.602;11.046;2023-01-24T01:20:27;2.70;99.90
3360;DHT22;1693;49.602;11.046;2023-01-24T01:22:54;2.80;99.90
3360;DHT22;1693;49.602;11.046;2023-01-24T01:25:23;2.70;99.90
3360;DHT22;1693;49.602;11.046;2023-01-24T01:27:51;2.70;99.90
3360;DHT22;1693;49.602;11.046;2023-01-24T01:30:18;2.80;99.90
3360;DHT22;1693;49.602;11.046;2023-01-24T01:32:47;2.80;99.90
3360;DHT22;1693;49.602;11.046;2023-01-24T01:35:17;2.80;99.90
3360;DHT22;1693;49.602;11.046;2023-01-24T01:37:45;2.70;99.90
3360;DHT22;1693;49.602;11.046;2023-01-24T01:40:16;2.60;99.90
3360;DHT22;1693;49.602;11.046;2023-01-24T01:42:52;2.60;99.90
3360;DHT22;1693;49.602;11.046;2023-01-24T01:45:35;2.50;99.90
3360;DHT22;1693;49.602;11.046;2023-01-24T01:48:26;2.60;99.90
3360;DHT22;1693;49.602;11.046;2023-01-24T01:50:58;2.50;99.90
3360;DHT22;1693;49.602;11.046;2023-01-24T01:53:29;2.50;99.90
3360;DHT22;1693;49.602;11.046;2023-01-24T01:56:01;2.40;99.90
3360;DHT22;1693;49.602;11.046;2023-01-24T01:58:30;2.40;99.90
3360;DHT22;1693;49.602;11.046;2023-01-24T02:00:57;2.50;99.90
3360;DHT22;1693;49.602;11.046;2023-01-24T02:03:32;2.40;99.90
3360;DHT22;1693;49.602;11.046;2023-01-24T02:06:13;2.50;99.90
3360;DHT22;1693;49.602;11.046;2023-01-24T02:08:43;2.60;99.90
3360;DHT22;1693;49.602;11.046;2023-01-24T02:11:11;2.60;99.90
3360;DHT22;1693;49.602;11.046;2023-01-24T02:13:56;2.70;99.90
3360;DHT22;1693;49.602;11.046;2023-01-24T02:16:40;2.80;99.90
3360;DHT22;1693;49.602;11.046;2023-01-24T02:19:14;2.70;99.90
3360;DHT22;1693;49.602;11.046;2023-01-24T02:21:46;2.60;99.90
3360;DHT22;1693;49.602;11.046;2023-01-24T02:24:21;2.60;99.90
3360;DHT22;1693;49.602;11.046;2023-01-24T02:26:51;2.50;99.90
3360;DHT22;1693;49.602;11.046;2023-01-24T02:29:20;2.40;99.90
3360;DHT22;1693;49.602;11.046;2023-01-24T02:31:56;2.40;99.90
3360;DHT22;1693;49.602;11.046;2023-01-24T02:34:24;2.40;99.90
3360;DHT22;1693;49.602;11.046;2023-01-24T02:36:55;2.40;99.90
3360;DHT22;1693;49.602;11.046;2023-01-24T02:39:25;2.40;99.90
3360;DHT22;1693;49.602;11.046;2023-01-24T02:41:57;2.50;99.90
3360;DHT22;1693;49.602;11.046;2023-01-24T02:44:30;2.60;99.90
3360;DHT22;1693;49.602;11.046;2023-01-24T02:47:03;2.50;99.90
3360;DHT22;1693;49.602;11.046;2023-01-24T02:49:31;2.40;99.90
3360;DHT22;1693;49.602;11.046;2023-01-24T02:52:00;2.40;99.90
3360;DHT22;1693;49.602;11.046;2023-01-24T02:54:45;2.50;99.90
3360;DHT22;1693;49.602;11.046;2023-01-24T02:57:13;2.50;99.90
3360;DHT22;1693;49.602;11.046;2023-01-24T02:59:58;2.40;99.90
3360;DHT22;1693;49.602;11.046;2023-01-24T03:02:25;2.30;99.90
3360;DHT22;1693;49.602;11.046;2023-01-24T03:04:52;2.30;99.90
3360;DHT22;1693;49.602;11.046;2023-01-24T03:07:26;2.30;99.90
3360;DHT22;1693;49.602;11.046;2023-01-24T03:09:56;2.30;99.90
3360;DHT22;1693;49.602;11.046;2023-01-24T03:12:24;2.20;99.90
3360;DHT22;1693;49.602;11.046;2023-01-24T03:15:10;2.30;99.90
3360;DHT22;1693;49.602;11.046;2023-01-24T03:17:58;2.30;99.90
3360;DHT22;1693;49.602;11.046;2023-01-24T03:20:46;2.40;99.90
3360;DHT22;1693;49.602;11.046;2023-01-24T03:23:31;2.40;99.90
3360;DHT22;1693;49.602;11.046;2023-01-24T03:26:15;2.40;99.90
3360;DHT22;1693;49.602;11.046;2023-01-24T03:29:01;2.50;99.90
3360;DHT22;1693;49.602;11.046;2023-01-24T03:31:45;2.40;99.90
3360;DHT22;1693;49.602;11.046;2023-01-24T03:34:30;2.30;99.90
3360;DHT22;1693;49.602;11.046;2023-01-24T03:36:58;2.40;99.90
3360;DHT22;1693;49.602;11.046;2023-01-24T03:39:25;2.30;99.90
3360;DHT22;1693;49.602;11.046;2023-01-24T03:42:10;2.30;99.90
3360;DHT22;1693;49.602;11.046;2023-01-24T03:44:39;2.30;99.90
3360;DHT22;1693;49.602;11.046;2023-01-24T03:47:06;2.30;99.90
3360;DHT22;1693;49.602;11.046;2023-01-24T03:49:33;2.30;99.90
3360;DHT22;1693;49.602;11.046;2023-01-24T03:52:17;2.30;99.90
3360;DHT22;1693;49.602;11.046;2023-01-24T03:54:54;2.20;99.90
3360;DHT22;1693;49.602;11.046;2023-01-24T03:57:22;2.30;99.90
3360;DHT22;1693;49.602;11.046;2023-01-24T03:59:50;2.20;99.90
3360;DHT22;1693;49.602;11.046;2023-01-24T04:02:18;2.20;99.90
3360;DHT22;1693;49.602;11.046;2023-01-24T04:04:45;2.20;99.90
3360;DHT22;1693;49.602;11.046;2023-01-24T04:07:30;2.30;99.90
3360;DHT22;1693;49.602;11.046;2023-01-24T04:09:57;2.30;99.90
3360;DHT22;1693;49.602;11.046;2023-01-24T04:12:24;2.30;99.90
3360;DHT22;1693;49.602;11.046;2023-01-24T04:14:53;2.40;99.90
3360;DHT22;1693;49.602;11.046;2023-01-24T04:17:20;2.50;99.90
3360;DHT22;1693;49.602;11.046;2023-01-24T04:19:47;2.50;99.90
3360;DHT22;1693;49.602;11.046;2023-01-24T04:22:15;2.40;99.90
3360;DHT22;1693;49.602;11.046;2023-01-24T04:24:43;2.30;99.90
3360;DHT22;1693;49.602;11.046;2023-01-24T04:27:10;2.40;99.90
3360;DHT22;1693;49.602;11.046;2023-01-24T04:29:38;2.30;99.90
3360;DHT22;1693;49.602;11.046;2023-01-24T04:32:07;2.40;99.90
3360;DHT22;1693;49.602;11.046;2023-01-24T04:34:34;2.40;99.90
3360;DHT22;1693;49.602;11.046;2023-01-24T04:37:01;2.40;99.90
3360;DHT22;1693;49.602;11.046;2023-01-24T04:39:28;2.40;99.90
3360;DHT22;1693;49.602;11.046;2023-01-24T04:41:55;2.30;99.90
3360;DHT22;1693;49.602;11.046;2023-01-24T04:44:23;2.40;99.90
3360;DHT22;1693;49.602;11.046;2023-01-24T04:46:50;2.40;99.90
3360;DHT22;1693;49.602;11.046;2023-01-24T04:49:18;2.40;99.90
3360;DHT22;1693;49.602;11.046;2023-01-24T04:51:47;2.40;99.90
3360;DHT22;1693;49.602;11.046;2023-01-24T04:54:14;2.50;99.90
3360;DHT22;1693;49.602;11.046;2023-01-24T04:56:41;2.40;99.90
3360;DHT22;1693;49.602;11.046;2023-01-24T04:59:10;2.40;99.90
3360;DHT22;1693;49.602;11.046;2023-01-24T05:01:38;2.40;99.90
3360;DHT22;1693;49.602;11.046;2023-01-24T05:04:06;2.40;99.90
3360;DHT22;1693;49.602;11.046;2023-01-24T05:06:35;2.40;99.90
3360;DHT22;1693;49.602;11.046;2023-01-24T05:09:02;2.30;99.90
3360;DHT22;1693;49.602;11.046;2023-01-24T05:11:30;2.30;99.90
3360;DHT22;1693;49.602;11.046;2023-01-24T05:13:57;2.30;99.90
3360;DHT22;1693;49.602;11.046;2023-01-24T05:16:24;2.40;99.90
3360;DHT22;1693;49.602;11.046;2023-01-24T05:18:51;2.30;99.90
3360;DHT22;1693;49.602;11.046;2023-01-24T05:21:18;2.30;99.90
3360;DHT22;1693;49.602;11.046;2023-01-24T05:23:50;2.20;99.90
3360;DHT22;1693;49.602;11.046;2023-01-24T05:26:17;2.20;99.90
3360;DHT22;1693;49.602;11.046;2023-01-24T05:28:44;2.30;99.90
3360;DHT22;1693;49.602;11.046;2023-01-24T05:31:11;2.40;99.90
3360;DHT22;1693;49.602;11.046;2023-01-24T05:33:38;2.40;99.90
3360;DHT22;1693;49.602;11.046;2023-01-24T05:36:09;2.50;99.90
3360;DHT22;1693;49.602;11.046;2023-01-24T05:38:36;2.40;99.90
3360;DHT22;1693;49.602;11.046;2023-01-24T05:41:07;2.40;99.90
3360;DHT22;1693;49.602;11.046;2023-01-24T05:43:35;2.40;99.90
3360;DHT22;1693;49.602;11.046;2023-01-24T05:46:04;2.50;99.90
3360;DHT22;1693;49.602;11.046;2023-01-24T05:48:32;2.50;99.90
3360;DHT22;1693;49.602;11.046;2023-01-24T05:51:00;2.50;99.90
3360;DHT22;1693;49.602;11.046;2023-01-24T05:53:28;2.50;99.90
3360;DHT22;1693;49.602;11.046;2023-01-24T05:55:56;2.60;99.90
3360;DHT22;1693;49.602;11.046;2023-01-24T05:58:25;2.50;99.90
3360;DHT22;1693;49.602;11.046;2023-01-24T06:04:12;2.60;99.90
3360;DHT22;1693;49.602;11.046;2023-01-24T06:06:42;2.60;99.90
3360;DHT22;1693;49.602;11.046;2023-01-24T06:09:11;2.50;99.90
3360;DHT22;1693;49.602;11.046;2023-01-24T06:11:38;2.50;99.90
3360;DHT22;1693;49.602;11.046;2023-01-24T06:14:07;2.40;99.90
3360;DHT22;1693;49.602;11.046;2023-01-24T06:16:34;2.40;99.90
3360;DHT22;1693;49.602;11.046;2023-01-24T06:19:01;2.50;99.90
3360;DHT22;1693;49.602;11.046;2023-01-24T06:21:40;2.50;99.90
3360;DHT22;1693;49.602;11.046;2023-01-24T06:24:15;2.50;99.90
3360;DHT22;1693;49.602;11.046;2023-01-24T06:26:45;2.50;99.90
3360;DHT22;1693;49.602;11.046;2023-01-24T06:29:15;2.60;99.90
3360;DHT22;1693;49.602;11.046;2023-01-24T06:31:49;2.70;99.90
3360;DHT22;1693;49.602;11.046;2023-01-24T06:34:24;2.60;99.90
3360;DHT22;1693;49.602;11.046;2023-01-24T06:37:04;2.70;99.90
3360;DHT22;1693;49.602;11.046;2023-01-24T06:39:33;2.60;99.90
3360;DHT22;1693;49.602;11.046;2023-01-24T06:42:01;2.70;99.90
3360;DHT22;1693;49.602;11.046;2023-01-24T06:44:30;2.60;99.90
3360;DHT22;1693;49.602;11.046;2023-01-24T06:46:59;2.60;99.90
3360;DHT22;1693;49.602;11.046;2023-01-24T06:49:38;2.70;99.90
3360;DHT22;1693;49.602;11.046;2023-01-24T06:52:07;2.60;99.90
3360;DHT22;1693;49.602;11.046;2023-01-24T06:54:34;2.70;99.90
3360;DHT22;1693;49.602;11.046;2023-01-24T06:57:02;2.70;99.90
3360;DHT22;1693;49.602;11.046;2023-01-24T06:59:31;2.80;99.90
3360;DHT22;1693;49.602;11.046;2023-01-24T07:02:00;2.80;99.90
3360;DHT22;1693;49.602;11.046;2023-01-24T07:04:27;2.90;99.90
3360;DHT22;1693;49.602;11.046;2023-01-24T07:06:55;2.80;99.90
3360;DHT22;1693;49.602;11.046;2023-01-24T07:09:25;2.80;99.90
3360;DHT22;1693;49.602;11.046;2023-01-24T07:12:11;2.90;99.90
3360;DHT22;1693;49.602;11.046;2023-01-24T07:14:55;2.80;99.90
3360;DHT22;1693;49.602;11.046;2023-01-24T07:17:24;2.80;99.90
3360;DHT22;1693;49.602;11.046;2023-01-24T07:19:53;2.80;99.90
3360;DHT22;1693;49.602;11.046;2023-01-24T07:22:20;2.90;99.90
3360;DHT22;1693;49.602;11.046;2023-01-24T07:24:48;2.90;99.90
3360;DHT22;1693;49.602;11.046;2023-01-24T07:27:16;2.70;99.90
3360;DHT22;1693;49.602;11.046;2023-01-24T07:29:44;2.70;99.90
3360;DHT22;1693;49.602;11.046;2023-01-24T07:32:12;2.70;99.90
3360;DHT22;1693;49.602;11.046;2023-01-24T07:34:39;2.70;99.90
3360;DHT22;1693;49.602;11.046;2023-01-24T07:37:06;2.80;99.90
3360;DHT22;1693;49.602;11.046;2023-01-24T07:39:34;2.80;99.90
3360;DHT22;1693;49.602;11.046;2023-01-24T07:42:01;2.90;99.90
3360;DHT22;1693;49.602;11.046;2023-01-24T07:44:28;2.90;99.90
3360;DHT22;1693;49.602;11.046;2023-01-24T07:46:55;2.90;99.90
3360;DHT22;1693;49.602;11.046;2023-01-24T07:49:23;2.80;99.90
3360;DHT22;1693;49.602;11.046;2023-01-24T07:51:51;2.90;99.90
3360;DHT22;1693;49.602;11.046;2023-01-24T07:54:18;2.90;99.90
3360;DHT22;1693;49.602;11.046;2023-01-24T07:56:45;2.90;99.90
3360;DHT22;1693;49.602;11.046;2023-01-24T07:59:13;3.00;99.90
3360;DHT22;1693;49.602;11.046;2023-01-24T08:01:40;3.00;99.90
3360;DHT22;1693;49.602;11.046;2023-01-24T08:04:08;3.00;99.90
3360;DHT22;1693;49.602;11.046;2023-01-24T08:06:38;3.00;99.90
3360;DHT22;1693;49.602;11.046;2023-01-24T08:09:25;3.10;99.90
3360;DHT22;1693;49.602;11.046;2023-01-24T08:11:52;3.10;99.90
3360;DHT22;1693;49.602;11.046;2023-01-24T08:14:20;3.20;99.90
3360;DHT22;1693;49.602;11.046;2023-01-24T08:16:47;3.10;99.90
3360;DHT22;1693;49.602;11.046;2023-01-24T08:19:14;3.20;99.90
3360;DHT22;1693;49.602;11.046;2023-01-24T08:21:43;3.20;99.90
3360;DHT22;1693;49.602;11.046;2023-01-24T08:24:10;3.30;99.90
3360;DHT22;1693;49.602;11.046;2023-01-24T08:26:37;3.30;99.90
3360;DHT22;1693;49.602;11.046;2023-01-24T08:29:05;3.30;99.90
3360;DHT22;1693;49.602;11.046;2023-01-24T08:31:50;3.40;99.90
3360;DHT22;1693;49.602;11.046;2023-01-24T08:34:17;3.40;99.90
3360;DHT22;1693;49.602;11.046;2023-01-24T08:37:04;3.40;99.90
3360;DHT22;1693;49.602;11.046;2023-01-24T08:39:32;3.40;99.90
3360;DHT22;1693;49.602;11.046;2023-01-24T08:42:18;3.40;99.90
3360;DHT22;1693;49.602;11.046;2023-01-24T08:44:45;3.40;99.90
3360;DHT22;1693;49.602;11.046;2023-01-24T08:47:12;3.50;99.90
3360;DHT22;1693;49.602;11.046;2023-01-24T08:49:49;3.40;99.90
3360;DHT22;1693;49.602;11.046;2023-01-24T08:55:39;3.40;99.90
3360;DHT22;1693;49.602;11.046;2023-01-24T08:58:06;3.40;99.90
3360;DHT22;1693;49.602;11.046;2023-01-24T09:00:33;3.50;99.90
3360;DHT22;1693;49.602;11.046;2023-01-24T09:03:00;3.40;99.90
3360;DHT22;1693;49.602;11.046;2023-01-24T09:05:27;3.40;99.90
3360;DHT22;1693;49.602;11.046;2023-01-24T09:07:55;3.40;99.90
3360;DHT22;1693;49.602;11.046;2023-01-24T09:10:22;3.40;99.90
3360;DHT22;1693;49.602;11.046;2023-01-24T09:12:51;3.50;99.90
3360;DHT22;1693;49.602;11.046;2023-01-24T09:15:18;3.50;99.90
3360;DHT22;1693;49.602;11.046;2023-01-24T09:17:45;3.60;99.90
3360;DHT22;1693;49.602;11.046;2023-01-24T09:20:12;3.60;99.90
3360;DHT22;1693;49.602;11.046;2023-01-24T09:22:39;3.60;99.90
3360;DHT22;1693;49.602;11.046;2023-01-24T09:25:08;3.70;99.90
3360;DHT22;1693;49.602;11.046;2023-01-24T09:27:35;3.60;99.90
3360;DHT22;1693;49.602;11.046;2023-01-24T09:30:04;3.80;99.90
3360;DHT22;1693;49.602;11.046;2023-01-24T09:32:32;3.80;99.90
3360;DHT22;1693;49.602;11.046;2023-01-24T09:34:59;3.70;99.90
3360;DHT22;1693;49.602;11.046;2023-01-24T09:38:17;3.70;99.90
3360;DHT22;1693;49.602;11.046;2023-01-24T09:40:56;3.70;99.90
3360;DHT22;1693;49.602;11.046;2023-01-24T09:43:55;3.80;99.90
3360;DHT22;1693;49.602;11.046;2023-01-24T09:46:28;4.00;99.90
3360;DHT22;1693;49.602;11.046;2023-01-24T09:49:08;4.10;99.90
3360;DHT22;1693;49.602;11.046;2023-01-24T09:51:47;4.00;99.90
3360;DHT22;1693;49.602;11.046;2023-01-24T09:54:28;4.00;99.90
3360;DHT22;1693;49.602;11.046;2023-01-24T09:56:57;3.90;99.90
3360;DHT22;1693;49.602;11.046;2023-01-24T09:59:32;3.80;99.90
3360;DHT22;1693;49.602;11.046;2023-01-24T10:02:05;3.90;99.90
3360;DHT22;1693;49.602;11.046;2023-01-24T10:04:47;3.70;99.90
3360;DHT22;1693;49.602;11.046;2023-01-24T10:07:43;3.80;99.90
3360;DHT22;1693;49.602;11.046;2023-01-24T10:10:37;3.90;99.90
3360;DHT22;1693;49.602;11.046;2023-01-24T10:13:27;3.90;99.90
3360;DHT22;1693;49.602;11.046;2023-01-24T10:16:10;3.90;99.90
3360;DHT22;1693;49.602;11.046;2023-01-24T10:19:02;4.00;99.90
3360;DHT22;1693;49.602;11.046;2023-01-24T10:21:56;4.10;99.90
3360;DHT22;1693;49.602;11.046;2023-01-24T10:24:31;4.10;99.90
3360;DHT22;1693;49.602;11.046;2023-01-24T10:26:59;4.00;99.90
3360;DHT22;1693;49.602;11.046;2023-01-24T10:29:30;4.10;99.90
3360;DHT22;1693;49.602;11.046;2023-01-24T10:32:03;4.10;99.90
3360;DHT22;1693;49.602;11.046;2023-01-24T10:34:36;4.20;99.90
3360;DHT22;1693;49.602;11.046;2023-01-24T10:37:10;4.20;99.90
3360;DHT22;1693;49.602;11.046;2023-01-24T10:39:41;3.90;99.90
3360;DHT22;1693;49.602;11.046;2023-01-24T10:42:18;3.90;99.90
3360;DHT22;1693;49.602;11.046;2023-01-24T10:44:47;3.90;99.90
3360;DHT22;1693;49.602;11.046;2023-01-24T10:47:40;3.90;99.90
3360;DHT22;1693;49.602;11.046;2023-01-24T10:50:18;3.90;99.90
3360;DHT22;1693;49.602;11.046;2023-01-24T10:52:45;3.90;99.90
3360;DHT22;1693;49.602;11.046;2023-01-24T10:55:26;4.00;99.90
3360;DHT22;1693;49.602;11.046;2023-01-24T10:57:56;4.10;99.90
3360;DHT22;1693;49.602;11.046;2023-01-24T11:00:32;4.10;99.90
3360;DHT22;1693;49.602;11.046;2023-01-24T11:03:03;4.20;99.90
3360;DHT22;1693;49.602;11.046;2023-01-24T11:05:48;4.00;99.90
3360;DHT22;1693;49.602;11.046;2023-01-24T11:08:21;4.10;99.90
3360;DHT22;1693;49.602;11.046;2023-01-24T11:10:51;4.10;99.90
3360;DHT22;1693;49.602;11.046;2023-01-24T11:13:26;4.10;99.90
3360;DHT22;1693;49.602;11.046;2023-01-24T11:15:58;4.20;99.90
3360;DHT22;1693;49.602;11.046;2023-01-24T11:18:29;4.20;99.90
3360;DHT22;1693;49.602;11.046;2023-01-24T11:21:11;4.10;99.90
3360;DHT22;1693;49.602;11.046;2023-01-24T11:23:39;4.10;99.90
3360;DHT22;1693;49.602;11.046;2023-01-24T11:26:21;4.20;99.90
3360;DHT22;1693;49.602;11.046;2023-01-24T11:28:57;4.20;99.90
3360;DHT22;1693;49.602;11.046;2023-01-24T11:31:31;4.20;99.90
3360;DHT22;1693;49.602;11.046;2023-01-24T11:37:22;4.00;99.90
3360;DHT22;1693;49.602;11.046;2023-01-24T11:40:01;4.00;99.90
3360;DHT22;1693;49.602;11.046;2023-01-24T11:42:34;3.90;99.90
3360;DHT22;1693;49.602;11.046;2023-01-24T11:45:23;4.00;99.90
3360;DHT22;1693;49.602;11.046;2023-01-24T11:48:03;4.10;99.90
3360;DHT22;1693;49.602;11.046;2023-01-24T11:50:40;4.20;99.90
3360;DHT22;1693;49.602;11.046;2023-01-24T11:53:38;4.40;99.90
3360;DHT22;1693;49.602;11.046;2023-01-24T11:56:15;4.50;99.90
3360;DHT22;1693;49.602;11.046;2023-01-24T12:01:52;4.50;99.90
3360;DHT22;1693;49.602;11.046;2023-01-24T12:04:49;4.40;99.90
3360;DHT22;1693;49.602;11.046;2023-01-24T12:07:22;4.20;99.90
3360;DHT22;1693;49.602;11.046;2023-01-24T12:10:02;4.20;99.90
3360;DHT22;1693;49.602;11.046;2023-01-24T12:12:37;4.20;99.90
3360;DHT22;1693;49.602;11.046;2023-01-24T12:15:17;4.20;99.90
3360;DHT22;1693;49.602;11.046;2023-01-24T12:18:12;3.90;99.90
3360;DHT22;1693;49.602;11.046;2023-01-24T12:20:59;4.00;99.90
3360;DHT22;1693;49.602;11.046;2023-01-24T12:23:38;4.00;99.90
3360;DHT22;1693;49.602;11.046;2023-01-24T12:26:13;3.90;99.90
3360;DHT22;1693;49.602;11.046;2023-01-24T12:28:47;3.80;99.90
3360;DHT22;1693;49.602;11.046;2023-01-24T12:31:23;3.80;99.90
3360;DHT22;1693;49.602;11.046;2023-01-24T12:33:55;3.80;99.90
3360;DHT22;1693;49.602;11.046;2023-01-24T12:36:32;3.90;99.90
3360;DHT22;1693;49.602;11.046;2023-01-24T12:39:11;4.00;99.90
3360;DHT22;1693;49.602;11.046;2023-01-24T12:41:40;4.10;99.90
3360;DHT22;1693;49.602;11.046;2023-01-24T12:44:25;4.00;99.90
3360;DHT22;1693;49.602;11.046;2023-01-24T12:47:11;4.10;99.90
3360;DHT22;1693;49.602;11.046;2023-01-24T12:49:47;4.10;99.90
3360;DHT22;1693;49.602;11.046;2023-01-24T12:52:23;4.20;99.90
3360;DHT22;1693;49.602;11.046;2023-01-24T12:54:58;4.10;99.90
3360;DHT22;1693;49.602;11.046;2023-01-24T12:57:32;4.10;99.90
3360;DHT22;1693;49.602;11.046;2023-01-24T13:00:03;4.00;99.90
3360;DHT22;1693;49.602;11.046;2023-01-24T13:02:59;3.90;99.90
3360;DHT22;1693;49.602;11.046;2023-01-24T13:05:38;3.90;99.90
3360;DHT22;1693;49.602;11.046;2023-01-24T13:08:19;3.90;99.90
3360;DHT22;1693;49.602;11.046;2023-01-24T13:10:56;4.00;99.90
3360;DHT22;1693;49.602;11.046;2023-01-24T13:13:31;3.90;99.90
3360;DHT22;1693;49.602;11.046;2023-01-24T13:16:17;3.90;99.90
3360;DHT22;1693;49.602;11.046;2023-01-24T13:18:56;3.90;99.90
3360;DHT22;1693;49.602;11.046;2023-01-24T13:21:29;3.90;99.90
3360;DHT22;1693;49.602;11.046;2023-01-24T13:24:12;3.90;99.90
3360;DHT22;1693;49.602;11.046;2023-01-24T13:26:56;3.80;99.90
3360;DHT22;1693;49.602;11.046;2023-01-24T13:29:42;3.90;99.90
3360;DHT22;1693;49.602;11.046;2023-01-24T13:32:15;3.90;99.90
3360;DHT22;1693;49.602;11.046;2023-01-24T13:34:46;3.90;99.90
3360;DHT22;1693;49.602;11.046;2023-01-24T13:37:19;4.10;99.90
3360;DHT22;1693;49.602;11.046;2023-01-24T13:39:47;4.10;99.90
3360;DHT22;1693;49.602;11.046;2023-01-24T13:42:34;4.10;99.90
3360;DHT22;1693;49.602;11.046;2023-01-24T13:51:22;4.00;99.90
3360;DHT22;1693;49.602;11.046;2023-01-24T13:54:00;4.00;99.90
3360;DHT22;1693;49.602;11.046;2023-01-24T13:56:27;4.00;99.90
3360;DHT22;1693;49.602;11.046;2023-01-24T13:58:55;4.00;99.90
3360;DHT22;1693;49.602;11.046;2023-01-24T14:01:24;4.10;99.90
3360;DHT22;1693;49.602;11.046;2023-01-24T14:03:59;4.10;99.90
3360;DHT22;1693;49.602;11.046;2023-01-24T14:06:39;3.90;99.90
3360;DHT22;1693;49.602;11.046;2023-01-24T14:09:19;3.80;99.90
3360;DHT22;1693;49.602;11.046;2023-01-24T14:11:54;3.80;99.90
3360;DHT22;1693;49.602;11.046;2023-01-24T14:14:33;3.70;99.90
3360;DHT22;1693;49.602;11.046;2023-01-24T14:17:26;3.70;99.90
3360;DHT22;1693;49.602;11.046;2023-01-24T14:19:57;3.80;99.90
3360;DHT22;1693;49.602;11.046;2023-01-24T14:22:44;3.70;99.90
3360;DHT22;1693;49.602;11.046;2023-01-24T14:25:34;3.80;99.90
3360;DHT22;1693;49.602;11.046;2023-01-24T14:28:04;3.90;99.90
3360;DHT22;1693;49.602;11.046;2023-01-24T14:30:39;3.90;99.90
3360;DHT22;1693;49.602;11.046;2023-01-24T14:33:27;3.90;99.90
3360;DHT22;1693;49.602;11.046;2023-01-24T14:36:03;3.90;99.90
3360;DHT22;1693;49.602;11.046;2023-01-24T14:38:31;3.90;99.90
3360;DHT22;1693;49.602;11.046;2023-01-24T14:40:58;3.80;99.90
3360;DHT22;1693;49.602;11.046;2023-01-24T14:43:33;3.80;99.90
3360;DHT22;1693;49.602;11.046;2023-01-24T14:46:15;3.70;99.90
3360;DHT22;1693;49.602;11.046;2023-01-24T14:48:43;3.70;99.90
3360;DHT22;1693;49.602;11.046;2023-01-24T14:51:16;3.80;99.90
3360;DHT22;1693;49.602;11.046;2023-01-24T14:53:47;3.70;99.90
3360;DHT22;1693;49.602;11.046;2023-01-24T14:56:14;3.70;99.90
3360;DHT22;1693;49.602;11.046;2023-01-24T14:58:42;3.80;99.90
3360;DHT22;1693;49.602;11.046;2023-01-24T15:01:27;3.70;99.90
3360;DHT22;1693;49.602;11.046;2023-01-24T15:03:56;3.70;99.90
3360;DHT22;1693;49.602;11.046;2023-01-24T15:06:27;3.80;99.90
3360;DHT22;1693;49.602;11.046;2023-01-24T15:08:55;3.80;99.90
3360;DHT22;1693;49.602;11.046;2023-01-24T15:11:26;3.80;99.90
3360;DHT22;1693;49.602;11.046;2023-01-24T15:13:56;3.80;99.90
3360;DHT22;1693;49.602;11.046;2023-01-24T15:16:31;3.80;99.90
3360;DHT22;1693;49.602;11.046;2023-01-24T15:19:03;3.70;99.90
3360;DHT22;1693;49.602;11.046;2023-01-24T15:21:34;3.80;99.90
3360;DHT22;1693;49.602;11.046;2023-01-24T15:24:03;3.70;99.90
3360;DHT22;1693;49.602;11.046;2023-01-24T15:26:50;3.70;99.90
3360;DHT22;1693;49.602;11.046;2023-01-24T15:29:41;3.70;99.90
3360;DHT22;1693;49.602;11.046;2023-01-24T15:32:20;3.70;99.90
3360;DHT22;1693;49.602;11.046;2023-01-24T15:34:48;3.60;99.90
3360;DHT22;1693;49.602;11.046;2023-01-24T15:37:17;3.60;99.90
3360;DHT22;1693;49.602;11.046;2023-01-24T15:39:44;3.50;99.90
3360;DHT22;1693;49.602;11.046;2023-01-24T15:42:14;3.50;99.90
3360;DHT22;1693;49.602;11.046;2023-01-24T15:44:59;3.60;99.90
3360;DHT22;1693;49.602;11.046;2023-01-24T15:47:27;3.50;99.90
3360;DHT22;1693;49.602;11.046;2023-01-24T15:50:16;3.40;99.90
3360;DHT22;1693;49.602;11.046;2023-01-24T15:53:16;3.40;99.90
3360;DHT22;1693;49.602;11.046;2023-01-24T15:55:47;3.30;99.90
3360;DHT22;1693;49.602;11.046;2023-01-24T15:58:57;3.30;99.90
3360;DHT22;1693;49.602;11.046;2023-01-24T16:01:41;3.40;99.90
3360;DHT22;1693;49.602;11.046;2023-01-24T16:04:11;3.40;99.90
3360;DHT22;1693;49.602;11.046;2023-01-24T16:06:39;3.50;99.90
3360;DHT22;1693;49.602;11.046;2023-01-24T16:09:08;3.50;99.90
3360;DHT22;1693;49.602;11.046;2023-01-24T16:11:36;3.60;99.90
3360;DHT22;1693;49.602;11.046;2023-01-24T16:14:04;3.60;99.90
3360;DHT22;1693;49.602;11.046;2023-01-24T16:16:33;3.60;99.90
3360;DHT22;1693;49.602;11.046;2023-01-24T16:19:00;3.60;99.90
3360;DHT22;1693;49.602;11.046;2023-01-24T16:21:27;3.60;99.90
3360;DHT22;1693;49.602;11.046;2023-01-24T16:23:54;3.60;99.90
3360;DHT22;1693;49.602;11.046;2023-01-24T16:26:24;3.50;99.90
3360;DHT22;1693;49.602;11.046;2023-01-24T16:28:52;3.40;99.90
3360;DHT22;1693;49.602;11.046;2023-01-24T16:31:18;3.30;99.90
3360;DHT22;1693;49.602;11.046;2023-01-24T16:33:45;3.40;99.90
3360;DHT22;1693;49.602;11.046;2023-01-24T16:36:14;3.40;99.90
3360;DHT22;1693;49.602;11.046;2023-01-24T16:38:42;3.40;99.90
3360;DHT22;1693;49.602;11.046;2023-01-24T16:41:09;3.40;99.90
3360;DHT22;1693;49.602;11.046;2023-01-24T16:43:42;3.50;99.90
3360;DHT22;1693;49.602;11.046;2023-01-24T16:46:16;3.60;99.90
3360;DHT22;1693;49.602;11.046;2023-01-24T16:48:44;3.50;99.90
3360;DHT22;1693;49.602;11.046;2023-01-24T16:51:18;3.50;99.90
3360;DHT22;1693;49.602;11.046;2023-01-24T16:53:46;3.50;99.90
3360;DHT22;1693;49.602;11.046;2023-01-24T16:56:13;3.60;99.90
3360;DHT22;1693;49.602;11.046;2023-01-24T16:58:45;3.50;99.90